sensor_id;sensor_type;location;lat;lon;timestamp;P1;durP1;ratioP1;P2;durP2;ratioP2
11879;SDS011;5999;43.256;27.816;2022-08-04T00:01:31;5.43;;;2.50;;
11879;SDS011;5999;43.256;27.816;2022-08-04T00:04:02;2.83;;;2.05;;
11879;SDS011;5999;43.256;27.816;2022-08-04T00:06:40;4.20;;;2.90;;
11879;SDS011;5999;43.256;27.816;2022-08-04T00:09:21;6.63;;;2.90;;
11879;SDS011;5999;43.256;27.816;2022-08-04T00:11:53;4.25;;;2.78;;
11879;SDS011;5999;43.256;27.816;2022-08-04T00:14:26;3.10;;;2.40;;
11879;SDS011;5999;43.256;27.816;2022-08-04T00:16:59;4.45;;;2.13;;
11879;SDS011;5999;43.256;27.816;2022-08-04T00:19:31;5.05;;;2.58;;
11879;SDS011;5999;43.256;27.816;2022-08-04T00:22:12;3.45;;;2.35;;
11879;SDS011;5999;43.256;27.816;2022-08-04T00:24:42;3.35;;;2.60;;
11879;SDS011;5999;43.256;27.816;2022-08-04T00:27:10;3.90;;;2.22;;
11879;SDS011;5999;43.256;27.816;2022-08-04T00:29:38;2.45;;;2.25;;
11879;SDS011;5999;43.256;27.816;2022-08-04T00:32:07;2.50;;;2.25;;
11879;SDS011;5999;43.256;27.816;2022-08-04T00:34:34;4.43;;;2.88;;
11879;SDS011;5999;43.256;27.816;2022-08-04T00:37:02;3.20;;;2.42;;
11879;SDS011;5999;43.256;27.816;2022-08-04T00:39:30;5.40;;;2.67;;
11879;SDS011;5999;43.256;27.816;2022-08-04T00:42:17;3.03;;;2.45;;
11879;SDS011;5999;43.256;27.816;2022-08-04T00:45:15;3.65;;;2.80;;
11879;SDS011;5999;43.256;27.816;2022-08-04T00:48:11;4.10;;;2.60;;
11879;SDS011;5999;43.256;27.816;2022-08-04T00:50:50;3.08;;;2.78;;
11879;SDS011;5999;43.256;27.816;2022-08-04T00:53:24;2.85;;;2.30;;
11879;SDS011;5999;43.256;27.816;2022-08-04T00:56:14;5.55;;;2.55;;
11879;SDS011;5999;43.256;27.816;2022-08-04T00:58:58;2.78;;;2.40;;
11879;SDS011;5999;43.256;27.816;2022-08-04T01:01:39;3.03;;;2.60;;
11879;SDS011;5999;43.256;27.816;2022-08-04T01:04:15;3.35;;;2.55;;
11879;SDS011;5999;43.256;27.816;2022-08-04T01:06:53;3.35;;;2.50;;
11879;SDS011;5999;43.256;27.816;2022-08-04T01:09:38;2.83;;;2.25;;
11879;SDS011;5999;43.256;27.816;2022-08-04T01:12:16;4.40;;;2.58;;
11879;SDS011;5999;43.256;27.816;2022-08-04T01:15:02;2.78;;;2.58;;
11879;SDS011;5999;43.256;27.816;2022-08-04T01:17:36;2.63;;;2.42;;
11879;SDS011;5999;43.256;27.816;2022-08-04T01:20:16;4.43;;;2.60;;
11879;SDS011;5999;43.256;27.816;2022-08-04T01:26:01;7.05;;;2.50;;
11879;SDS011;5999;43.256;27.816;2022-08-04T01:31:54;3.25;;;2.50;;
11879;SDS011;5999;43.256;27.816;2022-08-04T01:34:27;4.57;;;2.55;;
11879;SDS011;5999;43.256;27.816;2022-08-04T01:37:01;3.00;;;2.50;;
11879;SDS011;5999;43.256;27.816;2022-08-04T01:39:34;4.45;;;2.60;;
11879;SDS011;5999;43.256;27.816;2022-08-04T01:42:06;4.72;;;2.35;;
11879;SDS011;5999;43.256;27.816;2022-08-04T01:44:35;2.88;;;2.50;;
11879;SDS011;5999;43.256;27.816;2022-08-04T01:47:04;3.58;;;2.80;;
11879;SDS011;5999;43.256;27.816;2022-08-04T01:49:33;2.65;;;2.40;;
11879;SDS011;5999;43.256;27.816;2022-08-04T01:52:02;2.88;;;2.35;;
11879;SDS011;5999;43.256;27.816;2022-08-04T01:54:36;3.40;;;2.25;;
11879;SDS011;5999;43.256;27.816;2022-08-04T01:57:05;4.13;;;2.50;;
11879;SDS011;5999;43.256;27.816;2022-08-04T01:59:33;3.72;;;2.70;;
11879;SDS011;5999;43.256;27.816;2022-08-04T02:02:03;3.88;;;2.20;;
11879;SDS011;5999;43.256;27.816;2022-08-04T02:04:31;2.70;;;2.40;;
11879;SDS011;5999;43.256;27.816;2022-08-04T02:07:02;2.92;;;2.50;;
11879;SDS011;5999;43.256;27.816;2022-08-04T02:09:43;3.05;;;2.40;;
11879;SDS011;5999;43.256;27.816;2022-08-04T02:12:18;3.05;;;2.30;;
11879;SDS011;5999;43.256;27.816;2022-08-04T02:14:56;4.13;;;2.72;;
11879;SDS011;5999;43.256;27.816;2022-08-04T02:17:29;3.15;;;2.63;;
11879;SDS011;5999;43.256;27.816;2022-08-04T02:20:18;3.78;;;2.83;;
11879;SDS011;5999;43.256;27.816;2022-08-04T02:22:50;4.18;;;2.28;;
11879;SDS011;5999;43.256;27.816;2022-08-04T02:25:27;2.80;;;2.60;;
11879;SDS011;5999;43.256;27.816;2022-08-04T02:28:01;4.10;;;3.05;;
11879;SDS011;5999;43.256;27.816;2022-08-04T02:30:39;5.10;;;2.65;;
11879;SDS011;5999;43.256;27.816;2022-08-04T02:33:12;3.53;;;2.63;;
11879;SDS011;5999;43.256;27.816;2022-08-04T02:35:42;3.78;;;2.80;;
11879;SDS011;5999;43.256;27.816;2022-08-04T02:38:17;4.78;;;3.00;;
11879;SDS011;5999;43.256;27.816;2022-08-04T02:40:53;5.22;;;2.70;;
11879;SDS011;5999;43.256;27.816;2022-08-04T02:43:20;3.95;;;2.85;;
11879;SDS011;5999;43.256;27.816;2022-08-04T02:45:51;4.53;;;2.88;;
11879;SDS011;5999;43.256;27.816;2022-08-04T02:48:22;9.73;;;2.97;;
11879;SDS011;5999;43.256;27.816;2022-08-04T02:50:51;5.10;;;2.90;;
11879;SDS011;5999;43.256;27.816;2022-08-04T02:53:21;3.28;;;2.45;;
11879;SDS011;5999;43.256;27.816;2022-08-04T02:55:49;5.18;;;2.83;;
11879;SDS011;5999;43.256;27.816;2022-08-04T02:58:20;3.72;;;3.00;;
11879;SDS011;5999;43.256;27.816;2022-08-04T03:00:49;4.35;;;2.75;;
11879;SDS011;5999;43.256;27.816;2022-08-04T03:03:20;3.17;;;2.65;;
11879;SDS011;5999;43.256;27.816;2022-08-04T03:06:00;3.53;;;2.70;;
11879;SDS011;5999;43.256;27.816;2022-08-04T03:15:16;8.93;;;3.10;;
11879;SDS011;5999;43.256;27.816;2022-08-04T03:18:15;3.17;;;2.88;;
11879;SDS011;5999;43.256;27.816;2022-08-04T03:21:21;3.63;;;2.90;;
11879;SDS011;5999;43.256;27.816;2022-08-04T03:24:22;4.38;;;2.95;;
11879;SDS011;5999;43.256;27.816;2022-08-04T03:27:09;3.55;;;3.22;;
11879;SDS011;5999;43.256;27.816;2022-08-04T03:30:06;3.88;;;2.90;;
11879;SDS011;5999;43.256;27.816;2022-08-04T03:39:00;3.10;;;2.80;;
11879;SDS011;5999;43.256;27.816;2022-08-04T03:41:53;5.80;;;2.67;;
11879;SDS011;5999;43.256;27.816;2022-08-04T03:50:41;5.85;;;3.17;;
11879;SDS011;5999;43.256;27.816;2022-08-04T03:54:01;6.18;;;3.35;;
11879;SDS011;5999;43.256;27.816;2022-08-04T03:56:50;10.18;;;3.28;;
11879;SDS011;5999;43.256;27.816;2022-08-04T03:59:41;4.20;;;3.05;;
11879;SDS011;5999;43.256;27.816;2022-08-04T04:05:39;7.95;;;3.40;;
11879;SDS011;5999;43.256;27.816;2022-08-04T04:17:20;4.20;;;2.50;;
11879;SDS011;5999;43.256;27.816;2022-08-04T04:20:19;3.03;;;2.83;;
11879;SDS011;5999;43.256;27.816;2022-08-04T04:23:16;5.50;;;3.03;;
11879;SDS011;5999;43.256;27.816;2022-08-04T04:26:01;3.45;;;2.70;;
11879;SDS011;5999;43.256;27.816;2022-08-04T04:28:49;4.28;;;2.90;;
11879;SDS011;5999;43.256;27.816;2022-08-04T04:31:32;5.00;;;2.78;;
11879;SDS011;5999;43.256;27.816;2022-08-04T04:34:15;5.80;;;3.58;;
11879;SDS011;5999;43.256;27.816;2022-08-04T04:36:56;4.47;;;3.10;;
11879;SDS011;5999;43.256;27.816;2022-08-04T04:39:38;5.45;;;3.17;;
11879;SDS011;5999;43.256;27.816;2022-08-04T04:42:23;3.85;;;2.80;;
11879;SDS011;5999;43.256;27.816;2022-08-04T04:47:53;6.25;;;3.10;;
11879;SDS011;5999;43.256;27.816;2022-08-04T04:50:25;5.03;;;3.00;;
11879;SDS011;5999;43.256;27.816;2022-08-04T04:53:03;9.32;;;3.10;;
11879;SDS011;5999;43.256;27.816;2022-08-04T04:55:35;4.32;;;2.88;;
11879;SDS011;5999;43.256;27.816;2022-08-04T04:58:09;5.45;;;3.38;;
11879;SDS011;5999;43.256;27.816;2022-08-04T05:00:46;3.72;;;2.90;;
11879;SDS011;5999;43.256;27.816;2022-08-04T05:06:16;4.40;;;2.83;;
11879;SDS011;5999;43.256;27.816;2022-08-04T05:09:11;3.00;;;2.63;;
11879;SDS011;5999;43.256;27.816;2022-08-04T05:14:40;5.22;;;2.95;;
11879;SDS011;5999;43.256;27.816;2022-08-04T05:17:13;4.68;;;2.80;;
11879;SDS011;5999;43.256;27.816;2022-08-04T05:19:50;6.25;;;3.08;;
11879;SDS011;5999;43.256;27.816;2022-08-04T05:22:27;6.97;;;3.08;;
11879;SDS011;5999;43.256;27.816;2022-08-04T05:25:02;6.18;;;3.00;;
11879;SDS011;5999;43.256;27.816;2022-08-04T05:27:34;4.60;;;2.75;;
11879;SDS011;5999;43.256;27.816;2022-08-04T05:30:05;3.67;;;2.90;;
11879;SDS011;5999;43.256;27.816;2022-08-04T05:32:37;3.22;;;2.80;;
11879;SDS011;5999;43.256;27.816;2022-08-04T05:35:10;6.30;;;2.42;;
11879;SDS011;5999;43.256;27.816;2022-08-04T05:37:41;6.80;;;2.72;;
11879;SDS011;5999;43.256;27.816;2022-08-04T05:40:12;6.25;;;3.22;;
11879;SDS011;5999;43.256;27.816;2022-08-04T05:42:42;7.85;;;3.25;;
11879;SDS011;5999;43.256;27.816;2022-08-04T05:45:09;6.68;;;3.20;;
11879;SDS011;5999;43.256;27.816;2022-08-04T05:47:38;4.70;;;2.83;;
11879;SDS011;5999;43.256;27.816;2022-08-04T05:50:05;3.60;;;2.90;;
11879;SDS011;5999;43.256;27.816;2022-08-04T05:52:34;3.40;;;2.70;;
11879;SDS011;5999;43.256;27.816;2022-08-04T05:55:02;5.95;;;3.35;;
11879;SDS011;5999;43.256;27.816;2022-08-04T05:57:31;9.30;;;3.47;;
11879;SDS011;5999;43.256;27.816;2022-08-04T05:59:59;3.70;;;3.05;;
11879;SDS011;5999;43.256;27.816;2022-08-04T06:02:30;8.40;;;3.50;;
11879;SDS011;5999;43.256;27.816;2022-08-04T06:05:00;4.75;;;3.35;;
11879;SDS011;5999;43.256;27.816;2022-08-04T06:07:29;7.05;;;3.85;;
11879;SDS011;5999;43.256;27.816;2022-08-04T06:09:56;3.42;;;3.05;;
11879;SDS011;5999;43.256;27.816;2022-08-04T06:12:25;6.80;;;3.00;;
11879;SDS011;5999;43.256;27.816;2022-08-04T06:14:57;4.43;;;2.60;;
11879;SDS011;5999;43.256;27.816;2022-08-04T06:17:28;6.00;;;2.80;;
11879;SDS011;5999;43.256;27.816;2022-08-04T06:19:57;4.05;;;2.40;;
11879;SDS011;5999;43.256;27.816;2022-08-04T06:22:26;3.30;;;2.65;;
11879;SDS011;5999;43.256;27.816;2022-08-04T06:24:54;2.72;;;2.50;;
11879;SDS011;5999;43.256;27.816;2022-08-04T06:27:26;5.70;;;2.70;;
11879;SDS011;5999;43.256;27.816;2022-08-04T06:29:55;3.45;;;2.55;;
11879;SDS011;5999;43.256;27.816;2022-08-04T06:32:24;9.23;;;2.60;;
11879;SDS011;5999;43.256;27.816;2022-08-04T06:35:01;5.93;;;2.35;;
11879;SDS011;5999;43.256;27.816;2022-08-04T06:37:30;4.72;;;2.90;;
11879;SDS011;5999;43.256;27.816;2022-08-04T06:39:58;4.47;;;3.17;;
11879;SDS011;5999;43.256;27.816;2022-08-04T06:42:26;5.95;;;2.97;;
11879;SDS011;5999;43.256;27.816;2022-08-04T06:44:54;7.40;;;3.00;;
11879;SDS011;5999;43.256;27.816;2022-08-04T06:47:23;4.88;;;2.97;;
11879;SDS011;5999;43.256;27.816;2022-08-04T06:49:52;8.75;;;3.30;;
11879;SDS011;5999;43.256;27.816;2022-08-04T06:52:21;3.47;;;2.85;;
11879;SDS011;5999;43.256;27.816;2022-08-04T06:54:50;3.65;;;2.85;;
11879;SDS011;5999;43.256;27.816;2022-08-04T06:57:18;4.28;;;3.05;;
11879;SDS011;5999;43.256;27.816;2022-08-04T06:59:50;2.88;;;2.60;;
11879;SDS011;5999;43.256;27.816;2022-08-04T07:02:21;5.93;;;2.47;;
11879;SDS011;5999;43.256;27.816;2022-08-04T07:04:51;7.03;;;2.80;;
11879;SDS011;5999;43.256;27.816;2022-08-04T07:07:18;3.20;;;2.90;;
11879;SDS011;5999;43.256;27.816;2022-08-04T07:09:48;4.65;;;2.70;;
11879;SDS011;5999;43.256;27.816;2022-08-04T07:12:16;4.70;;;3.40;;
11879;SDS011;5999;43.256;27.816;2022-08-04T07:14:45;7.05;;;3.30;;
11879;SDS011;5999;43.256;27.816;2022-08-04T07:17:13;6.68;;;3.60;;
11879;SDS011;5999;43.256;27.816;2022-08-04T07:19:41;8.63;;;3.50;;
11879;SDS011;5999;43.256;27.816;2022-08-04T07:22:09;8.85;;;3.42;;
11879;SDS011;5999;43.256;27.816;2022-08-04T07:24:36;4.75;;;3.45;;
11879;SDS011;5999;43.256;27.816;2022-08-04T07:27:05;5.57;;;3.10;;
11879;SDS011;5999;43.256;27.816;2022-08-04T07:29:32;6.03;;;2.60;;
11879;SDS011;5999;43.256;27.816;2022-08-04T07:32:00;7.80;;;5.18;;
11879;SDS011;5999;43.256;27.816;2022-08-04T07:34:29;8.38;;;3.47;;
11879;SDS011;5999;43.256;27.816;2022-08-04T07:36:58;4.93;;;3.05;;
11879;SDS011;5999;43.256;27.816;2022-08-04T07:39:26;19.70;;;11.07;;
11879;SDS011;5999;43.256;27.816;2022-08-04T07:41:56;5.40;;;3.00;;
11879;SDS011;5999;43.256;27.816;2022-08-04T07:44:25;4.80;;;2.72;;
11879;SDS011;5999;43.256;27.816;2022-08-04T07:46:53;4.22;;;2.78;;
11879;SDS011;5999;43.256;27.816;2022-08-04T07:49:20;3.13;;;2.80;;
11879;SDS011;5999;43.256;27.816;2022-08-04T07:51:48;3.53;;;2.90;;
11879;SDS011;5999;43.256;27.816;2022-08-04T07:54:15;3.40;;;2.55;;
11879;SDS011;5999;43.256;27.816;2022-08-04T07:56:43;5.43;;;3.00;;
11879;SDS011;5999;43.256;27.816;2022-08-04T07:59:13;2.92;;;2.42;;
11879;SDS011;5999;43.256;27.816;2022-08-04T08:01:41;3.75;;;2.70;;
11879;SDS011;5999;43.256;27.816;2022-08-04T08:04:10;4.70;;;2.78;;
11879;SDS011;5999;43.256;27.816;2022-08-04T08:06:38;5.18;;;2.45;;
11879;SDS011;5999;43.256;27.816;2022-08-04T08:09:06;5.15;;;2.92;;
11879;SDS011;5999;43.256;27.816;2022-08-04T08:11:36;4.53;;;2.80;;
11879;SDS011;5999;43.256;27.816;2022-08-04T08:14:03;6.20;;;3.00;;
11879;SDS011;5999;43.256;27.816;2022-08-04T08:16:32;7.00;;;3.10;;
11879;SDS011;5999;43.256;27.816;2022-08-04T08:19:00;5.80;;;2.92;;
11879;SDS011;5999;43.256;27.816;2022-08-04T08:21:28;4.57;;;3.00;;
11879;SDS011;5999;43.256;27.816;2022-08-04T08:23:56;6.47;;;3.15;;
11879;SDS011;5999;43.256;27.816;2022-08-04T08:26:23;3.33;;;2.75;;
11879;SDS011;5999;43.256;27.816;2022-08-04T08:28:50;4.22;;;2.88;;
11879;SDS011;5999;43.256;27.816;2022-08-04T08:31:17;3.05;;;2.72;;
11879;SDS011;5999;43.256;27.816;2022-08-04T08:33:45;4.50;;;2.90;;
11879;SDS011;5999;43.256;27.816;2022-08-04T08:36:16;4.43;;;2.40;;
11879;SDS011;5999;43.256;27.816;2022-08-04T08:38:48;5.80;;;2.72;;
11879;SDS011;5999;43.256;27.816;2022-08-04T08:41:39;4.18;;;3.05;;
11879;SDS011;5999;43.256;27.816;2022-08-04T08:44:33;3.78;;;2.78;;
11879;SDS011;5999;43.256;27.816;2022-08-04T08:47:38;3.90;;;3.03;;
11879;SDS011;5999;43.256;27.816;2022-08-04T08:56:20;4.35;;;2.88;;
11879;SDS011;5999;43.256;27.816;2022-08-04T08:59:00;4.07;;;3.03;;
11879;SDS011;5999;43.256;27.816;2022-08-04T09:01:45;3.53;;;2.70;;
11879;SDS011;5999;43.256;27.816;2022-08-04T09:04:36;3.67;;;2.42;;
11879;SDS011;5999;43.256;27.816;2022-08-04T09:07:32;3.08;;;2.50;;
11879;SDS011;5999;43.256;27.816;2022-08-04T09:10:16;2.70;;;2.50;;
11879;SDS011;5999;43.256;27.816;2022-08-04T09:12:49;2.92;;;2.50;;
11879;SDS011;5999;43.256;27.816;2022-08-04T09:15:21;5.07;;;2.40;;
11879;SDS011;5999;43.256;27.816;2022-08-04T09:17:56;2.78;;;2.40;;
11879;SDS011;5999;43.256;27.816;2022-08-04T09:20:28;3.38;;;2.70;;
11879;SDS011;5999;43.256;27.816;2022-08-04T09:23:05;4.93;;;2.78;;
11879;SDS011;5999;43.256;27.816;2022-08-04T09:25:45;4.65;;;2.67;;
11879;SDS011;5999;43.256;27.816;2022-08-04T09:28:18;2.80;;;2.55;;
11879;SDS011;5999;43.256;27.816;2022-08-04T09:30:51;3.47;;;2.42;;
11879;SDS011;5999;43.256;27.816;2022-08-04T09:33:27;5.15;;;2.80;;
11879;SDS011;5999;43.256;27.816;2022-08-04T09:36:06;2.97;;;2.72;;
11879;SDS011;5999;43.256;27.816;2022-08-04T09:38:40;5.60;;;3.33;;
11879;SDS011;5999;43.256;27.816;2022-08-04T09:41:15;4.10;;;2.60;;
11879;SDS011;5999;43.256;27.816;2022-08-04T09:44:05;3.42;;;2.40;;
11879;SDS011;5999;43.256;27.816;2022-08-04T09:46:41;2.50;;;2.30;;
11879;SDS011;5999;43.256;27.816;2022-08-04T09:49:17;2.60;;;2.40;;
11879;SDS011;5999;43.256;27.816;2022-08-04T09:51:48;2.92;;;2.30;;
11879;SDS011;5999;43.256;27.816;2022-08-04T09:54:24;2.40;;;2.20;;
11879;SDS011;5999;43.256;27.816;2022-08-04T09:57:03;2.38;;;2.17;;
11879;SDS011;5999;43.256;27.816;2022-08-04T09:59:40;2.50;;;2.30;;
11879;SDS011;5999;43.256;27.816;2022-08-04T10:02:15;4.13;;;2.65;;
11879;SDS011;5999;43.256;27.816;2022-08-04T10:04:46;3.65;;;2.05;;
11879;SDS011;5999;43.256;27.816;2022-08-04T10:07:38;3.65;;;2.17;;
11879;SDS011;5999;43.256;27.816;2022-08-04T10:10:19;4.15;;;2.65;;
11879;SDS011;5999;43.256;27.816;2022-08-04T10:13:07;3.10;;;2.30;;
11879;SDS011;5999;43.256;27.816;2022-08-04T10:15:50;3.45;;;2.33;;
11879;SDS011;5999;43.256;27.816;2022-08-04T10:18:36;3.30;;;2.33;;
11879;SDS011;5999;43.256;27.816;2022-08-04T10:21:10;2.67;;;2.03;;
11879;SDS011;5999;43.256;27.816;2022-08-04T10:23:46;4.43;;;2.53;;
11879;SDS011;5999;43.256;27.816;2022-08-04T10:26:30;3.80;;;2.35;;
11879;SDS011;5999;43.256;27.816;2022-08-04T10:29:09;3.47;;;2.22;;
11879;SDS011;5999;43.256;27.816;2022-08-04T10:31:41;6.72;;;2.20;;
11879;SDS011;5999;43.256;27.816;2022-08-04T10:34:16;4.45;;;2.42;;
11879;SDS011;5999;43.256;27.816;2022-08-04T10:36:48;2.45;;;2.25;;
11879;SDS011;5999;43.256;27.816;2022-08-04T10:39:23;2.25;;;2.05;;
11879;SDS011;5999;43.256;27.816;2022-08-04T10:41:59;3.80;;;2.22;;
11879;SDS011;5999;43.256;27.816;2022-08-04T10:44:39;4.43;;;2.15;;
11879;SDS011;5999;43.256;27.816;2022-08-04T10:47:18;2.25;;;2.00;;
11879;SDS011;5999;43.256;27.816;2022-08-04T10:49:50;3.15;;;2.00;;
11879;SDS011;5999;43.256;27.816;2022-08-04T10:52:22;3.22;;;2.13;;
11879;SDS011;5999;43.256;27.816;2022-08-04T10:55:04;4.78;;;2.10;;
11879;SDS011;5999;43.256;27.816;2022-08-04T10:57:38;2.47;;;2.28;;
11879;SDS011;5999;43.256;27.816;2022-08-04T11:00:09;3.28;;;2.00;;
11879;SDS011;5999;43.256;27.816;2022-08-04T11:02:41;2.83;;;2.40;;
11879;SDS011;5999;43.256;27.816;2022-08-04T11:05:17;3.58;;;2.13;;
11879;SDS011;5999;43.256;27.816;2022-08-04T11:07:52;4.18;;;2.55;;
11879;SDS011;5999;43.256;27.816;2022-08-04T11:10:27;2.97;;;2.47;;
11879;SDS011;5999;43.256;27.816;2022-08-04T11:12:59;3.72;;;2.20;;
11879;SDS011;5999;43.256;27.816;2022-08-04T11:15:30;4.35;;;2.20;;
11879;SDS011;5999;43.256;27.816;2022-08-04T11:18:04;3.25;;;2.53;;
11879;SDS011;5999;43.256;27.816;2022-08-04T11:20:35;3.95;;;2.85;;
11879;SDS011;5999;43.256;27.816;2022-08-04T11:23:07;3.05;;;2.70;;
11879;SDS011;5999;43.256;27.816;2022-08-04T11:25:39;6.60;;;3.00;;
11879;SDS011;5999;43.256;27.816;2022-08-04T11:28:16;4.40;;;3.22;;
11879;SDS011;5999;43.256;27.816;2022-08-04T11:30:51;6.40;;;3.67;;
11879;SDS011;5999;43.256;27.816;2022-08-04T11:33:30;4.28;;;3.17;;
11879;SDS011;5999;43.256;27.816;2022-08-04T11:36:05;7.55;;;3.50;;
11879;SDS011;5999;43.256;27.816;2022-08-04T11:38:43;9.85;;;4.38;;
11879;SDS011;5999;43.256;27.816;2022-08-04T11:41:16;8.05;;;3.53;;
11879;SDS011;5999;43.256;27.816;2022-08-04T11:43:48;4.60;;;3.88;;
11879;SDS011;5999;43.256;27.816;2022-08-04T11:46:22;10.95;;;4.18;;
11879;SDS011;5999;43.256;27.816;2022-08-04T11:48:55;5.45;;;4.03;;
11879;SDS011;5999;43.256;27.816;2022-08-04T11:51:26;6.63;;;4.57;;
11879;SDS011;5999;43.256;27.816;2022-08-04T11:53:55;7.50;;;3.10;;
11879;SDS011;5999;43.256;27.816;2022-08-04T11:56:23;6.95;;;4.50;;
11879;SDS011;5999;43.256;27.816;2022-08-04T11:58:51;5.85;;;4.28;;
11879;SDS011;5999;43.256;27.816;2022-08-04T12:01:20;7.82;;;4.22;;
11879;SDS011;5999;43.256;27.816;2022-08-04T12:04:07;4.68;;;4.28;;
11879;SDS011;5999;43.256;27.816;2022-08-04T12:06:43;6.18;;;4.47;;
11879;SDS011;5999;43.256;27.816;2022-08-04T12:09:16;3.88;;;2.40;;
11879;SDS011;5999;43.256;27.816;2022-08-04T12:11:54;7.63;;;4.53;;
11879;SDS011;5999;43.256;27.816;2022-08-04T12:14:29;3.88;;;3.00;;
11879;SDS011;5999;43.256;27.816;2022-08-04T12:17:06;8.00;;;4.00;;
11879;SDS011;5999;43.256;27.816;2022-08-04T12:19:36;9.40;;;4.43;;
11879;SDS011;5999;43.256;27.816;2022-08-04T12:22:10;7.85;;;4.65;;
11879;SDS011;5999;43.256;27.816;2022-08-04T12:24:41;8.82;;;4.25;;
11879;SDS011;5999;43.256;27.816;2022-08-04T12:27:11;6.93;;;4.55;;
11879;SDS011;5999;43.256;27.816;2022-08-04T12:29:41;6.93;;;3.75;;
11879;SDS011;5999;43.256;27.816;2022-08-04T12:32:16;6.03;;;2.95;;
11879;SDS011;5999;43.256;27.816;2022-08-04T12:34:48;4.97;;;3.63;;
11879;SDS011;5999;43.256;27.816;2022-08-04T12:37:32;4.53;;;3.75;;
11879;SDS011;5999;43.256;27.816;2022-08-04T12:40:07;9.05;;;4.00;;
11879;SDS011;5999;43.256;27.816;2022-08-04T12:42:41;7.80;;;4.03;;
11879;SDS011;5999;43.256;27.816;2022-08-04T12:45:12;4.18;;;3.42;;
11879;SDS011;5999;43.256;27.816;2022-08-04T12:47:41;4.53;;;4.10;;
11879;SDS011;5999;43.256;27.816;2022-08-04T12:50:12;6.65;;;3.85;;
11879;SDS011;5999;43.256;27.816;2022-08-04T12:52:41;5.85;;;3.72;;
11879;SDS011;5999;43.256;27.816;2022-08-04T12:55:11;6.07;;;4.00;;
11879;SDS011;5999;43.256;27.816;2022-08-04T12:57:40;8.75;;;4.35;;
11879;SDS011;5999;43.256;27.816;2022-08-04T13:00:09;6.85;;;3.90;;
11879;SDS011;5999;43.256;27.816;2022-08-04T13:02:47;7.18;;;4.00;;
11879;SDS011;5999;43.256;27.816;2022-08-04T13:05:15;4.32;;;3.92;;
11879;SDS011;5999;43.256;27.816;2022-08-04T13:07:45;6.82;;;3.60;;
11879;SDS011;5999;43.256;27.816;2022-08-04T13:10:15;5.97;;;4.57;;
11879;SDS011;5999;43.256;27.816;2022-08-04T13:12:50;5.13;;;3.83;;
11879;SDS011;5999;43.256;27.816;2022-08-04T13:15:19;6.75;;;3.40;;
11879;SDS011;5999;43.256;27.816;2022-08-04T13:17:53;6.70;;;3.33;;
11879;SDS011;5999;43.256;27.816;2022-08-04T13:20:23;4.00;;;3.45;;
11879;SDS011;5999;43.256;27.816;2022-08-04T13:22:56;6.07;;;4.35;;
11879;SDS011;5999;43.256;27.816;2022-08-04T13:25:26;7.07;;;4.50;;
11879;SDS011;5999;43.256;27.816;2022-08-04T13:27:54;6.47;;;4.00;;
11879;SDS011;5999;43.256;27.816;2022-08-04T13:30:23;3.15;;;2.38;;
11879;SDS011;5999;43.256;27.816;2022-08-04T13:32:53;6.95;;;4.40;;
11879;SDS011;5999;43.256;27.816;2022-08-04T13:35:22;7.15;;;4.60;;
11879;SDS011;5999;43.256;27.816;2022-08-04T13:37:51;4.05;;;3.65;;
11879;SDS011;5999;43.256;27.816;2022-08-04T13:40:21;5.97;;;4.38;;
11879;SDS011;5999;43.256;27.816;2022-08-04T13:42:51;8.90;;;4.30;;
11879;SDS011;5999;43.256;27.816;2022-08-04T13:45:19;4.70;;;3.85;;
11879;SDS011;5999;43.256;27.816;2022-08-04T13:47:47;5.30;;;3.88;;
11879;SDS011;5999;43.256;27.816;2022-08-04T13:50:18;7.15;;;4.18;;
11879;SDS011;5999;43.256;27.816;2022-08-04T13:52:50;7.32;;;4.32;;
11879;SDS011;5999;43.256;27.816;2022-08-04T13:55:19;6.80;;;4.03;;
11879;SDS011;5999;43.256;27.816;2022-08-04T13:57:49;6.32;;;3.83;;
11879;SDS011;5999;43.256;27.816;2022-08-04T14:00:19;8.57;;;4.65;;
11879;SDS011;5999;43.256;27.816;2022-08-04T14:02:55;6.95;;;4.32;;
11879;SDS011;5999;43.256;27.816;2022-08-04T14:05:27;5.90;;;4.20;;
11879;SDS011;5999;43.256;27.816;2022-08-04T14:07:57;6.20;;;4.38;;
11879;SDS011;5999;43.256;27.816;2022-08-04T14:10:30;4.20;;;3.28;;
11879;SDS011;5999;43.256;27.816;2022-08-04T14:12:57;5.32;;;3.72;;
11879;SDS011;5999;43.256;27.816;2022-08-04T14:15:28;6.20;;;3.50;;
11879;SDS011;5999;43.256;27.816;2022-08-04T14:18:14;4.18;;;2.83;;
11879;SDS011;5999;43.256;27.816;2022-08-04T14:20:57;6.53;;;4.72;;
11879;SDS011;5999;43.256;27.816;2022-08-04T14:23:42;8.43;;;4.57;;
11879;SDS011;5999;43.256;27.816;2022-08-04T14:26:22;6.38;;;4.50;;
11879;SDS011;5999;43.256;27.816;2022-08-04T14:28:52;4.50;;;1.63;;
11879;SDS011;5999;43.256;27.816;2022-08-04T14:31:22;4.45;;;3.53;;
11879;SDS011;5999;43.256;27.816;2022-08-04T14:33:50;7.13;;;4.68;;
11879;SDS011;5999;43.256;27.816;2022-08-04T14:36:19;7.88;;;4.75;;
11879;SDS011;5999;43.256;27.816;2022-08-04T14:38:47;6.20;;;4.80;;
11879;SDS011;5999;43.256;27.816;2022-08-04T14:41:17;6.10;;;4.38;;
11879;SDS011;5999;43.256;27.816;2022-08-04T14:43:46;7.85;;;4.53;;
11879;SDS011;5999;43.256;27.816;2022-08-04T14:46:15;7.72;;;4.60;;
11879;SDS011;5999;43.256;27.816;2022-08-04T14:48:58;6.50;;;4.60;;
11879;SDS011;5999;43.256;27.816;2022-08-04T14:51:28;6.75;;;4.47;;
11879;SDS011;5999;43.256;27.816;2022-08-04T14:54:04;3.75;;;3.25;;
11879;SDS011;5999;43.256;27.816;2022-08-04T14:56:31;8.45;;;4.53;;
11879;SDS011;5999;43.256;27.816;2022-08-04T14:59:00;11.63;;;5.10;;
11879;SDS011;5999;43.256;27.816;2022-08-04T15:01:29;8.52;;;5.43;;
11879;SDS011;5999;43.256;27.816;2022-08-04T15:03:57;7.40;;;4.45;;
11879;SDS011;5999;43.256;27.816;2022-08-04T15:06:27;6.13;;;4.25;;
11879;SDS011;5999;43.256;27.816;2022-08-04T15:08:56;9.75;;;3.92;;
11879;SDS011;5999;43.256;27.816;2022-08-04T15:11:25;5.95;;;3.17;;
11879;SDS011;5999;43.256;27.816;2022-08-04T15:13:53;7.80;;;4.85;;
11879;SDS011;5999;43.256;27.816;2022-08-04T15:16:21;5.60;;;4.75;;
11879;SDS011;5999;43.256;27.816;2022-08-04T15:18:50;6.03;;;4.68;;
11879;SDS011;5999;43.256;27.816;2022-08-04T15:21:17;6.72;;;5.20;;
11879;SDS011;5999;43.256;27.816;2022-08-04T15:23:47;6.60;;;5.15;;
11879;SDS011;5999;43.256;27.816;2022-08-04T15:26:15;8.25;;;4.97;;
11879;SDS011;5999;43.256;27.816;2022-08-04T15:28:49;7.10;;;5.50;;
11879;SDS011;5999;43.256;27.816;2022-08-04T15:31:19;9.07;;;5.28;;
11879;SDS011;5999;43.256;27.816;2022-08-04T15:33:47;11.10;;;6.78;;
11879;SDS011;5999;43.256;27.816;2022-08-04T15:36:15;9.95;;;6.25;;
11879;SDS011;5999;43.256;27.816;2022-08-04T15:38:54;6.75;;;5.13;;
11879;SDS011;5999;43.256;27.816;2022-08-04T15:41:32;7.35;;;5.47;;
11879;SDS011;5999;43.256;27.816;2022-08-04T15:44:19;5.53;;;3.25;;
11879;SDS011;5999;43.256;27.816;2022-08-04T15:47:10;7.43;;;5.13;;
11879;SDS011;5999;43.256;27.816;2022-08-04T15:49:38;8.40;;;5.78;;
11879;SDS011;5999;43.256;27.816;2022-08-04T15:52:08;8.88;;;5.68;;
11879;SDS011;5999;43.256;27.816;2022-08-04T15:54:36;14.25;;;5.20;;
11879;SDS011;5999;43.256;27.816;2022-08-04T15:57:05;8.93;;;5.28;;
11879;SDS011;5999;43.256;27.816;2022-08-04T16:02:37;7.97;;;5.25;;
11879;SDS011;5999;43.256;27.816;2022-08-04T16:08:07;7.13;;;5.10;;
11879;SDS011;5999;43.256;27.816;2022-08-04T16:10:43;9.27;;;4.97;;
11879;SDS011;5999;43.256;27.816;2022-08-04T16:13:11;7.88;;;6.07;;
11879;SDS011;5999;43.256;27.816;2022-08-04T16:15:40;6.10;;;5.22;;
11879;SDS011;5999;43.256;27.816;2022-08-04T16:18:09;8.90;;;5.88;;
11879;SDS011;5999;43.256;27.816;2022-08-04T16:20:37;7.28;;;5.55;;
11879;SDS011;5999;43.256;27.816;2022-08-04T16:23:12;8.55;;;5.15;;
11879;SDS011;5999;43.256;27.816;2022-08-04T16:25:57;5.85;;;5.20;;
11879;SDS011;5999;43.256;27.816;2022-08-04T16:28:37;6.97;;;5.43;;